Time;durP1;ratioP1;P1;durP2;ratioP2;P2;SDS_P1;SDS_P2;PMS_P1;PMS_P2;Temp;Humidity;BMP_temperature;BMP_pressure;BME280_temperature;BME280_humidity;BME280_pressure;Samples;Min_cycle;Max_cycle;Signal;HPM_P1;HPM_P2
2024/04/01 00:13:10;;;;;;;0.00;0.00;;;;;;;8.01;100.00;97817.94;4755722;29;20052;-77
2024/04/01 00:15:39;;;;;;;0.00;0.00;;;;;;;7.70;100.00;97758.09;4779980;30;20035;-79
2024/04/01 00:21:45;;;;;;;0.00;0.00;;;;;;;7.59;100.00;97746.66;4783570;29;20077;-79
2024/04/01 00:24:10;;;;;;;0.00;0.00;;;;;;;7.84;100.00;97779.75;4781859;29;20051;-78
2024/04/01 00:26:43;;;;;;;0.00;0.00;;;;;;;8.01;100.00;97806.25;4777909;29;20100;-76
2024/04/01 00:29:31;;;;;;;0.00;0.00;;;;;;;8.00;100.00;97812.81;4766937;30;20105;-77
2024/04/01 00:31:57;;;;;;;0.00;0.00;;;;;;;7.81;100.00;97786.66;4767794;29;20066;-76
2024/04/01 00:34:53;;;;;;;;;;;;;;;;;;;;;
2024/04/01 00:37:53;;;;;;;;;;;;;;;;;;;;;
2024/04/01 00:41:08;;;;;;;0.00;0.00;;;;;;;7.76;100.00;97767.72;4782711;29;20080;-80
2024/04/01 00:43:34;;;;;;;0.00;0.00;;;;;;;7.75;100.00;97768.03;4791885;29;20038;-76
2024/04/01 00:46:14;;;;;;;;;;;;;;;;;;;;;
2024/04/01 00:48:40;;;;;;;0.00;0.00;;;;;;;7.89;100.00;97787.00;4808469;29;20027;-77
2024/04/01 00:51:12;;;;;;;0.00;0.00;;;;;;;7.85;100.00;97782.16;4811133;29;20049;-79
2024/04/01 01:07:54;;;;;;;;;;;;;;;;;;;;;
2024/04/01 01:22:31;;;;;;;0.00;0.00;;;;;;;7.32;100.00;97785.69;4790395;29;20447;-81
2024/04/01 01:36:25;;;;;;;0.00;0.00;;;;;;;6.71;100.00;97791.41;4697084;30;20111;-80
2024/04/01 01:43:41;;;;;;;;;;;;;;;;;;;;;
2024/04/01 01:46:46;;;;;;;0.10;0.10;;;;;;;6.39;100.00;97790.44;4723369;30;20056;-79
2024/04/01 01:57:00;;;;;;;;;;;;;;;;;;;;;
2024/04/01 02:00:28;;;;;;;0.00;0.00;;;;;;;6.18;100.00;97802.84;4712832;30;20059;-81
2024/04/01 02:07:15;;;;;;;;;;;;;;;;;;;;;
2024/04/01 02:09:43;;;;;;;0.00;0.00;;;;;;;5.92;100.00;97811.41;4794331;29;20038;-77
2024/04/01 02:12:12;;;;;;;0.00;0.00;;;;;;;5.56;100.00;97776.78;4800360;29;20575;-79
2024/04/01 02:14:57;;;;;;;;;;;;;;;;;;;;;
2024/04/01 02:18:03;;;;;;;0.00;0.00;;;;;;;5.50;100.00;97786.13;4786771;29;20522;-77
2024/04/01 02:20:58;;;;;;;0.00;0.00;;;;;;;5.61;100.00;97825.53;4771123;29;20047;-79
2024/04/01 02:24:09;;;;;;;0.00;0.00;;;;;;;5.59;100.00;97835.84;4798556;29;20065;-79
2024/04/01 02:26:38;;;;;;;0.10;0.10;;;;;;;5.26;100.00;97792.47;4789568;29;20039;-79
2024/04/01 02:29:12;;;;;;;0.10;0.10;;;;;;;5.27;100.00;97802.22;4772029;29;20039;-79
2024/04/01 02:32:08;;;;;;;;;;;;;;;;;;;;;
2024/04/01 02:34:52;;;;;;;0.00;0.00;;;;;;;5.14;100.00;97808.38;4826587;29;20426;-79
2024/04/01 03:09:45;;;;;;;;;;;;;;;;;;;;;
2024/04/01 03:12:13;;;;;;;0.00;0.00;;;;;;;4.87;100.00;97910.03;4693636;30;20037;-80
2024/04/01 03:14:57;;;;;;;;;;;;;;;;;;;;;
2024/04/01 03:17:45;;;;;;;0.10;0.10;;;;;;;4.75;100.00;97920.50;4807257;29;20482;-81
2024/04/01 03:24:46;;;;;;;0.10;0.10;;;;;;;4.37;100.00;97867.84;4735973;29;20053;-80
2024/04/01 03:31:24;;;;;;;0.10;0.10;;;;;;;4.59;100.00;97923.38;4691183;30;20058;-79
2024/04/01 03:34:24;;;;;;;0.10;0.10;;;;;;;4.54;100.00;97929.66;4664515;30;20192;-79
2024/04/01 03:44:29;;;;;;;;;;;;;;;;;;;;;
2024/04/01 03:51:37;;;;;;;0.10;0.10;;;;;;;4.48;100.00;97943.50;4693090;30;20053;-81
2024/04/01 03:58:09;;;;;;;0.00;0.00;;;;;;;4.34;100.00;97956.91;4610877;30;20124;-80
2024/04/01 04:00:42;;;;;;;0.10;0.10;;;;;;;4.06;100.00;97924.19;4604481;30;20039;-80
2024/04/01 04:03:10;;;;;;;0.00;0.00;;;;;;;3.83;100.00;97894.06;4715470;30;20044;-80
2024/04/01 04:05:36;;;;;;;0.10;0.10;;;;;;;3.78;100.00;97893.31;4718303;30;20065;-79
2024/04/01 04:08:07;;;;;;;0.00;0.00;;;;;;;4.10;100.00;97943.34;4719065;30;20114;-79
2024/04/01 04:24:28;;;;;;;0.10;0.10;;;;;;;3.86;100.00;97906.22;4711622;30;20060;-81
2024/04/01 04:27:37;;;;;;;0.00;0.00;;;;;;;3.76;100.00;97887.38;4694652;30;20124;-80
2024/04/01 04:30:16;;;;;;;0.10;0.10;;;;;;;3.81;100.00;97896.25;4698759;30;20036;-79
2024/04/01 04:32:44;;;;;;;0.10;0.10;;;;;;;3.97;100.00;97929.38;4724693;30;20068;-80
2024/04/01 04:36:06;;;;;;;0.10;0.10;;;;;;;3.83;100.00;97918.41;4752780;30;20043;-80
2024/04/01 04:38:56;;;;;;;0.00;0.00;;;;;;;4.01;100.00;97954.75;4752027;30;20124;-79
2024/04/01 05:03:10;;;;;;;0.00;0.00;;;;;;;4.05;100.00;97914.44;4797975;29;20095;-80
2024/04/01 05:05:45;;;;;;;;;;;;;;;;;;;;;
2024/04/01 05:08:27;;;;;;;0.00;0.00;;;;;;;4.03;100.00;97927.44;4803437;29;20042;-79
2024/04/01 05:10:53;;;;;;;0.00;0.00;;;;;;;4.16;100.00;97937.59;4799497;29;20107;-79
2024/04/01 05:16:56;;;;;;;;;;;;;;;4.65;100.00;97978.25;4803975;29;20034;-79
2024/04/01 05:19:22;;;;;;;0.10;0.10;;;;;;;4.60;100.00;97951.22;4817035;29;19943;-78
2024/04/01 05:22:29;;;;;;;0.00;0.00;;;;;;;4.98;100.00;97990.09;4818506;29;20030;-80
2024/04/01 05:25:15;;;;;;;0.10;0.10;;;;;;;4.87;100.00;97956.06;4798959;29;20405;-80
2024/04/01 05:27:41;;;;;;;0.10;0.10;;;;;;;5.11;100.00;97982.34;4817336;29;20175;-80
2024/04/01 05:30:53;;;;;;;;;;;;;;;;;;;;;
2024/04/01 05:33:57;;;;;;;0.00;0.00;;;;;;;5.13;100.00;97953.06;4824886;29;20049;-80
2024/04/01 05:37:15;;;;;;;0.00;0.00;;;;;;;5.57;100.00;98006.13;4806538;29;20122;-80
2024/04/01 05:40:43;;;;;;;;;;;;;;;;;;;;;
2024/04/01 05:43:47;;;;;;;;;;;;;;;;;;;;;
2024/04/01 05:52:52;;;;;;;;;;;;;;;;;;;;;
2024/04/01 05:58:51;;;;;;;0.00;0.00;;;;;;;5.48;100.00;97969.94;4782232;29;20043;-79
2024/04/01 06:01:17;;;;;;;0.00;0.00;;;;;;;5.25;100.00;97950.72;4769290;29;20044;-81
2024/04/01 06:04:21;;;;;;;0.00;0.00;;;;;;;5.03;100.00;97941.25;4781647;29;20047;-80
2024/04/01 06:10:30;;;;;;;;;;;;;;;;;;;;;
2024/04/01 06:13:14;;;;;;;0.10;0.10;;;;;;;4.89;100.00;97976.38;4783367;29;20039;-79
2024/04/01 06:15:41;;;;;;;0.10;0.10;;;;;;;4.81;100.00;97962.66;4756217;30;20406;-80
2024/04/01 06:18:30;;;;;;;0.00;0.00;;;;;;;5.03;100.00;97997.34;4778394;29;20059;-78
2024/04/01 06:25:02;;;;;;;;;;;;;;;;;;;;;
2024/04/01 06:27:40;;;;;;;0.10;0.10;;;;;;;5.13;100.00;97970.13;4752602;30;20039;-78
2024/04/01 06:30:07;;;;;;;0.00;0.00;;;;;;;5.25;100.00;97984.03;4776693;30;20040;-78
2024/04/01 06:33:28;;;;;;;;;;;;;;;;;;;;;
2024/04/01 06:36:22;;;;;;;0.00;0.00;;;;;;;5.55;100.00;98013.78;4780827;29;20053;-79
2024/04/01 06:39:34;;;;;;;0.00;0.00;;;;;;;5.65;100.00;98029.91;4800906;29;20115;-78
2024/04/01 06:43:03;;;;;;;0.00;0.00;;;;;;;5.65;100.00;98002.78;4808037;29;20130;-79
2024/04/01 06:45:47;;;;;;;0.00;0.00;;;;;;;5.55;100.00;97970.41;4785093;29;20066;-86
2024/04/01 06:48:58;;;;;;;0.00;0.00;;;;;;;5.68;100.00;97985.09;4803337;29;20080;-86
2024/04/01 06:51:26;;;;;;;0.00;0.00;;;;;;;5.73;100.00;97988.53;4758994;30;20420;-80
2024/04/01 06:53:57;;;;;;;0.00;0.00;;;;;;;5.91;100.00;97999.69;4749993;30;20044;-79
2024/04/01 06:56:26;;;;;;;0.00;0.00;;;;;;;5.93;100.00;97971.16;4728747;30;20148;-78
2024/04/01 06:58:55;;;;;;;0.00;0.00;;;;;;;6.27;100.00;98008.09;4717894;30;20166;-79
2024/04/01 07:01:53;;;;;;;;;;;;;;;;;;;;;
2024/04/01 07:05:09;;;;;;;;;;;;;;;;;;;;;
2024/04/01 07:07:48;;;;;;;;;;;;;;;;;;;;;
2024/04/01 07:10:31;;;;;;;0.00;0.00;;;;;;;6.66;100.00;98027.81;4802784;29;20052;-78
2024/04/01 07:13:06;;;;;;;0.00;0.00;;;;;;;6.68;100.00;98022.88;4793580;29;20022;-80
2024/04/01 07:15:32;;;;;;;0.00;0.00;;;;;;;6.76;100.00;98022.19;4797620;29;20081;-81
2024/04/01 07:17:57;;;;;;;0.00;0.00;;;;;;;6.71;100.00;98005.97;4780442;29;20050;-80
2024/04/01 07:24:10;;;;;;;0.00;0.00;;;;;;;6.90;100.00;97999.66;4807354;29;20471;-81
2024/04/01 07:37:16;;;;;;;0.00;0.00;;;;;;;6.92;100.00;97975.72;4676479;30;20080;-80
2024/04/01 08:22:37;;;;;;;0.00;0.00;;;;;;;14.94;100.00;98031.00;4438772;24;20146;-78
2024/04/01 08:25:13;;;;;;;0.10;0.10;;;;;;;18.09;98.89;98050.66;4774644;29;20062;-83
2024/04/01 08:35:29;;;;;;;0.00;0.00;;;;;;;20.36;71.69;98084.09;4720485;30;20156;-81
2024/04/01 08:48:19;;;;;;;0.00;0.00;;;;;;;16.20;89.25;98032.00;4719710;30;20037;-79
2024/04/01 08:51:25;;;;;;;0.00;0.00;;;;;;;15.73;94.63;98099.03;4694244;30;20041;-76
2024/04/01 08:58:15;;;;;;;;;;;;;;;;;;;;;
2024/04/01 09:00:46;;;;;;;0.00;0.00;;;;;;;20.20;60.87;98061.44;4643134;30;20034;-78
2024/04/01 09:03:22;;;;;;;0.00;0.00;;;;;;;21.93;55.28;98073.75;4693170;30;20157;-78
2024/04/01 09:06:00;;;;;;;0.00;0.00;;;;;;;21.67;51.08;98069.41;4667354;30;20064;-78
2024/04/01 09:08:27;;;;;;;0.00;0.00;;;;;;;22.39;51.06;98088.00;4724011;30;20040;-78
2024/04/01 09:11:35;;;;;;;;;;;;;;;;;;;;;
2024/04/01 09:14:35;;;;;;;;;;;;;;;;;;;;;
2024/04/01 09:18:02;;;;;;;0.00;0.00;;;;;;;27.65;40.47;98075.34;4780078;29;20115;-76
2024/04/01 09:20:25;;;;;;;0.00;0.00;;;;;;;29.47;36.25;98078.28;4793514;29;20128;-78
2024/04/01 09:22:54;;;;;;;0.00;0.00;;;;;;;31.04;35.36;98076.84;4721825;30;20051;-77
2024/04/01 09:28:57;;;;;;;0.00;0.00;;;;;;;29.66;33.63;98080.09;4765060;30;20036;-76
2024/04/01 09:32:27;;;;;;;0.00;0.00;;;;;;;24.44;38.56;98074.59;4753919;30;20501;-78
2024/04/01 09:35:49;;;;;;;;;;;;;;;;;;;;;
2024/04/01 09:42:03;;;;;;;0.00;0.00;;;;;;;27.41;32.44;98066.28;4757110;30;20046;-76
2024/04/01 09:44:32;;;;;;;0.00;0.00;;;;;;;23.35;36.75;98113.81;4766231;30;20067;-76
2024/04/01 09:47:41;;;;;;;;;;;;;;;;;;;;;
2024/04/01 09:50:48;;;;;;;0.00;0.00;;;;;;;15.94;48.89;98040.09;4748223;30;20128;-78
2024/04/01 09:53:49;;;;;;;;;;;;;;;;;;;;;
2024/04/01 09:56:55;;;;;;;;;;;;;;;;;;;;;
2024/04/01 10:00:03;;;;;;;;;;;;;;;;;;;;;
2024/04/01 10:03:13;;;;;;;0.00;0.00;;;;;;;19.81;47.50;98109.91;4777294;30;20059;-78
2024/04/01 10:09:38;;;;;;;0.00;0.00;;;;;;;22.19;40.74;98102.31;4766229;30;20036;-78
2024/04/01 10:12:36;;;;;;;0.00;0.00;;;;;;;23.10;38.62;98114.78;4783135;29;20391;-77
2024/04/01 10:15:51;;;;;;;;;;;;;;;;;;;;;
2024/04/01 10:21:57;;;;;;;0.00;0.00;;;;;;;31.24;29.23;98129.31;4747883;30;20138;-77
2024/04/01 10:24:54;;;;;;;;;;;;;;;;;;;;;
2024/04/01 10:27:47;;;;;;;0.00;0.00;;;;;;;32.98;23.71;98132.94;4778567;29;20047;-76
2024/04/01 10:30:40;;;;;;;0.00;0.00;;;;;;;34.12;21.73;98133.59;4786055;29;20071;-76
2024/04/01 10:34:05;;;;;;;0.00;0.00;;;;;;;27.75;27.30;98095.97;4778061;29;20076;-75
2024/04/01 10:36:45;;;;;;;0.00;0.00;;;;;;;23.74;34.40;98142.63;4733384;30;20112;-79
2024/04/01 10:40:02;;;;;;;0.00;0.00;;;;;;;19.28;41.40;98124.88;4732944;30;20048;-80
2024/04/01 10:43:00;;;;;;;0.00;0.00;;;;;;;16.45;47.36;98136.50;4749847;30;20046;-77
2024/04/01 10:49:19;;;;;;;0.00;0.00;;;;;;;14.47;55.81;98146.00;4736027;30;20059;-77
2024/04/01 10:52:25;;;;;;;0.00;0.00;;;;;;;13.16;65.89;98133.16;4774297;29;20027;-78
2024/04/01 10:55:08;;;;;;;;;;;;;;;12.50;72.47;98140.19;4774179;29;20036;-77
2024/04/01 10:57:51;;;;;;;0.00;0.00;;;;;;;12.01;78.76;98141.47;4778112;29;19967;-77
2024/04/01 11:00:19;;;;;;;0.00;0.00;;;;;;;11.43;82.82;98143.81;4782039;29;20035;-77
2024/04/01 11:03:19;;;;;;;0.00;0.00;;;;;;;11.08;88.62;98154.03;4782071;29;20034;-76
2024/04/01 11:06:41;;;;;;;0.00;0.00;;;;;;;10.83;90.40;98143.66;4776638;30;20076;-77
2024/04/01 11:09:34;;;;;;;0.00;0.00;;;;;;;11.39;93.00;98148.34;4717994;30;20021;-75
2024/04/01 11:12:30;;;;;;;0.00;0.00;;;;;;;13.85;87.55;98141.72;4788640;29;20035;-75
2024/04/01 11:15:00;;;;;;;0.00;0.00;;;;;;;14.74;79.50;98123.59;4768512;30;20070;-75
2024/04/01 11:17:26;;;;;;;0.10;0.10;;;;;;;15.00;76.99;98128.66;4777897;29;20035;-75
2024/04/01 11:20:01;;;;;;;0.00;0.00;;;;;;;15.34;75.00;98151.19;4759212;30;20028;-74
2024/04/01 11:22:56;;;;;;;0.00;0.00;;;;;;;14.95;76.69;98139.91;4782245;29;20056;-75
2024/04/01 11:25:48;;;;;;;0.00;0.00;;;;;;;13.88;75.33;98152.03;4764778;29;20044;-76
2024/04/01 11:28:13;;;;;;;0.00;0.00;;;;;;;12.65;80.38;98167.00;4779150;29;20135;-75
2024/04/01 11:30:45;;;;;;;0.00;0.00;;;;;;;11.63;87.27;98160.66;4765607;29;20511;-75
2024/04/01 11:33:21;;;;;;;0.00;0.00;;;;;;;10.81;93.62;98153.28;4768392;29;20510;-76
2024/04/01 11:35:48;;;;;;;0.00;0.00;;;;;;;10.36;100.00;98180.94;4777476;29;20169;-76
2024/04/01 11:38:14;;;;;;;0.00;0.00;;;;;;;10.12;100.00;98173.94;4777439;29;20062;-76
2024/04/01 11:40:40;;;;;;;0.00;0.00;;;;;;;10.23;100.00;98158.84;4776459;29;20121;-77
2024/04/01 11:43:15;;;;;;;0.00;0.00;;;;;;;10.54;100.00;98152.50;4793904;29;20046;-77
2024/04/01 11:45:41;;;;;;;;;;;;;;;10.95;100.00;98180.44;4779118;29;20046;-76
2024/04/01 11:48:07;;;;;;;0.00;0.00;;;;;;;11.21;100.00;98174.94;4781526;29;20408;-74
2024/04/01 11:50:51;;;;;;;0.00;0.00;;;;;;;11.80;100.00;98187.16;4774744;29;20039;-76
2024/04/01 11:53:17;;;;;;;0.00;0.00;;;;;;;12.30;100.00;98183.69;4781855;29;20138;-76
2024/04/01 11:56:02;;;;;;;0.00;0.00;;;;;;;12.30;98.77;98183.69;4789504;29;20105;-76
2024/04/01 11:58:27;;;;;;;0.00;0.00;;;;;;;11.82;99.97;98171.19;4783118;29;20097;-75
2024/04/01 12:00:57;;;;;;;0.00;0.00;;;;;;;11.50;100.00;98193.38;4768561;29;20039;-74
2024/04/01 12:03:27;;;;;;;0.10;0.10;;;;;;;11.27;100.00;98187.34;4771057;29;20066;-74
2024/04/01 12:05:54;;;;;;;0.00;0.00;;;;;;;11.52;100.00;98184.81;4760417;29;20039;-75
2024/04/01 12:08:22;;;;;;;0.10;0.10;;;;;;;11.63;100.00;98169.66;4774450;29;20046;-75
2024/04/01 12:10:48;;;;;;;0.00;0.00;;;;;;;11.49;100.00;98185.47;4771980;29;20503;-76
2024/04/01 12:13:16;;;;;;;0.00;0.00;;;;;;;11.20;100.00;98189.75;4781767;29;20039;-75
2024/04/01 12:15:44;;;;;;;0.00;0.00;;;;;;;10.99;100.00;98209.56;4783692;29;20032;-76
2024/04/01 12:18:16;;;;;;;0.00;0.00;;;;;;;10.52;100.00;98206.66;4778585;29;20035;-76
2024/04/01 12:20:42;;;;;;;0.00;0.00;;;;;;;9.71;100.00;98207.84;4800056;29;20555;-77
2024/04/01 12:23:12;;;;;;;0.10;0.10;;;;;;;9.15;100.00;98202.72;4762993;29;20510;-78
2024/04/01 12:25:40;;;;;;;0.00;0.00;;;;;;;8.95;100.00;98217.69;4763587;29;20043;-78
2024/04/01 12:28:08;;;;;;;0.00;0.00;;;;;;;8.85;100.00;98199.63;4750104;29;20490;-78
2024/04/01 12:38:38;;;;;;;0.00;0.00;;;;;;;9.05;100.00;98149.28;4775948;30;20039;-76
2024/04/01 12:41:35;;;;;;;0.00;0.00;;;;;;;9.71;100.00;98219.56;4750621;30;20035;-77
2024/04/01 12:44:08;;;;;;;0.00;0.00;;;;;;;9.72;100.00;98198.53;4742550;30;20044;-78
2024/04/01 12:46:44;;;;;;;0.00;0.00;;;;;;;9.98;100.00;98203.31;4768644;30;20058;-78
2024/04/01 12:49:29;;;;;;;0.10;0.10;;;;;;;9.78;100.00;98227.28;4763564;29;20043;-83
2024/04/01 12:51:58;;;;;;;0.00;0.00;;;;;;;11.70;100.00;98191.84;4773917;29;20031;-80
2024/04/01 12:54:38;;;;;;;0.00;0.00;;;;;;;15.97;100.00;98213.00;4768635;29;20066;-78
2024/04/01 12:57:18;;;;;;;0.00;0.00;;;;;;;16.32;99.07;98195.72;4778599;29;20035;-79
2024/04/01 13:00:00;;;;;;;0.00;0.00;;;;;;;18.60;100.00;98205.13;4777657;29;20031;-80
2024/04/01 13:03:05;;;;;;;;;;;;;;;;;;;;;
2024/04/01 13:06:05;;;;;;;0.00;0.00;;;;;;;27.53;55.90;98231.19;4725829;29;20537;-80
2024/04/01 13:08:46;;;;;;;0.00;0.00;;;;;;;29.57;47.29;98232.00;4777358;29;20062;-79
2024/04/01 13:11:20;;;;;;;0.00;0.00;;;;;;;27.99;42.05;98218.13;4766578;29;20051;-79
2024/04/01 13:14:04;;;;;;;0.00;0.00;;;;;;;23.78;49.68;98230.69;4788875;29;20024;-78
2024/04/01 13:16:45;;;;;;;0.00;0.00;;;;;;;20.78;59.29;98192.22;4791930;29;20073;-78
2024/04/01 13:19:34;;;;;;;0.00;0.00;;;;;;;18.82;66.28;98209.00;4772364;29;20066;-77
2024/04/01 13:22:13;;;;;;;0.00;0.00;;;;;;;17.78;73.21;98223.94;4773960;29;20047;-77
2024/04/01 13:24:57;;;;;;;0.00;0.00;;;;;;;17.51;83.22;98192.66;4767579;29;20127;-78
2024/04/01 13:27:34;;;;;;;0.00;0.00;;;;;;;23.02;63.24;98210.72;4770799;29;20084;-77
2024/04/01 13:30:06;;;;;;;0.00;0.00;;;;;;;23.37;60.20;98228.53;4780703;29;20055;-77
2024/04/01 13:32:58;;;;;;;0.00;0.00;;;;;;;26.59;52.64;98224.59;4778732;29;20046;-79
2024/04/01 13:35:52;;;;;;;0.00;0.00;;;;;;;29.83;43.60;98215.16;4773442;29;20482;-77
2024/04/01 13:38:37;;;;;;;0.00;0.00;;;;;;;29.74;35.46;98233.47;4765849;29;20042;-77
2024/04/01 13:41:28;;;;;;;0.10;0.10;;;;;;;24.18;42.18;98222.03;4775262;29;20063;-78
2024/04/01 13:44:21;;;;;;;0.00;0.00;;;;;;;19.80;51.84;98243.41;4777338;29;20032;-78
2024/04/01 13:47:20;;;;;;;0.00;0.00;;;;;;;17.13;64.05;98250.34;4775091;29;20549;-78
2024/04/01 13:50:04;;;;;;;0.00;0.00;;;;;;;15.11;69.98;98255.56;4782502;29;20114;-77
2024/04/01 13:52:55;;;;;;;0.00;0.00;;;;;;;12.38;83.08;98267.00;4784630;29;20075;-79
2024/04/01 13:55:30;;;;;;;0.00;0.00;;;;;;;10.98;100.00;98259.09;4788327;29;20035;-80
2024/04/01 13:58:12;;;;;;;0.00;0.00;;;;;;;10.40;100.00;98263.88;4787862;29;20087;-79
2024/04/01 14:01:01;;;;;;;0.00;0.00;;;;;;;9.70;100.00;98249.91;4773513;29;20061;-79
2024/04/01 14:03:47;;;;;;;0.00;0.00;;;;;;;9.36;100.00;98262.22;4780675;29;20035;-79
2024/04/01 14:06:43;;;;;;;0.00;0.00;;;;;;;9.28;100.00;98265.69;4776461;29;20027;-79
2024/04/01 14:09:49;;;;;;;0.00;0.00;;;;;;;9.63;100.00;98274.13;4782295;29;20039;-80
2024/04/01 14:12:26;;;;;;;0.10;0.10;;;;;;;12.71;100.00;98249.88;4762406;30;20035;-79
2024/04/01 14:15:19;;;;;;;0.08;0.08;;;;;;;13.42;100.00;98265.47;4777646;29;20077;-79
2024/04/01 14:18:35;;;;;;;;;;;;;;;;;;;;;
2024/04/01 14:21:08;;;;;;;0.00;0.00;;;;;;;12.84;100.00;98264.47;4752009;29;20059;-78
2024/04/01 14:23:43;;;;;;;0.00;0.00;;;;;;;13.39;100.00;98263.38;4778807;29;20051;-78
2024/04/01 14:26:09;;;;;;;0.00;0.00;;;;;;;15.90;100.00;98246.69;4763523;29;20043;-79
2024/04/01 14:28:35;;;;;;;0.00;0.00;;;;;;;17.56;88.45;98222.75;4765232;29;20035;-80
2024/04/01 14:31:03;;;;;;;0.00;0.00;;;;;;;17.90;82.96;98243.16;4771633;29;20035;-79
2024/04/01 14:33:29;;;;;;;0.00;0.00;;;;;;;19.55;78.37;98221.72;4772487;29;20073;-78
2024/04/01 14:36:15;;;;;;;0.10;0.10;;;;;;;19.07;74.11;98235.44;4776421;29;20035;-78
2024/04/01 14:38:40;;;;;;;0.00;0.00;;;;;;;17.36;78.63;98238.56;4777558;29;20043;-78
2024/04/01 14:41:06;;;;;;;0.00;0.00;;;;;;;16.72;86.77;98252.59;4778738;29;20381;-80
2024/04/01 14:43:31;;;;;;;0.00;0.00;;;;;;;16.37;91.19;98242.34;4785657;29;20047;-80
2024/04/01 14:45:58;;;;;;;0.00;0.00;;;;;;;18.70;92.75;98249.94;4781283;29;20047;-79
2024/04/01 14:48:31;;;;;;;0.00;0.00;;;;;;;20.08;70.87;98255.94;4779594;29;20042;-79
2024/04/01 14:50:59;;;;;;;0.00;0.00;;;;;;;18.54;72.17;98253.66;4789393;29;20043;-78
2024/04/01 14:53:26;;;;;;;0.00;0.00;;;;;;;17.67;73.10;98250.59;4759734;30;20035;-78
2024/04/01 14:56:02;;;;;;;0.00;0.00;;;;;;;19.20;67.20;98239.53;4773025;29;20527;-80
2024/04/01 14:58:35;;;;;;;0.00;0.00;;;;;;;21.16;63.61;98221.38;4778677;29;20129;-76
2024/04/01 15:01:43;;;;;;;0.00;0.00;;;;;;;20.69;53.75;98243.38;4768561;29;20061;-83
2024/04/01 15:04:41;;;;;;;;;;;;;;;;;;;;;
2024/04/01 15:07:42;;;;;;;;;;;;;;;;;;;;;
2024/04/01 15:10:25;;;;;;;0.00;0.00;;;;;;;15.52;76.80;98215.81;4770518;29;20606;-80
2024/04/01 15:13:04;;;;;;;0.00;0.00;;;;;;;17.23;77.17;98226.84;4750000;29;20084;-80
2024/04/01 15:15:32;;;;;;;0.00;0.00;;;;;;;18.74;64.43;98231.41;4773336;29;20027;-76
2024/04/01 15:17:58;;;;;;;0.00;0.00;;;;;;;21.10;60.80;98245.97;4776832;29;20066;-75
2024/04/01 15:20:34;;;;;;;;;;;;;;;;;;;;;
2024/04/01 15:23:01;;;;;;;0.00;0.00;;;;;;;25.09;54.10;98250.72;4765235;29;20048;-76
2024/04/01 15:25:39;;;;;;;;;;;;;;;;;;;;;
2024/04/01 15:28:06;;;;;;;0.08;0.08;;;;;;;26.75;47.70;98237.94;4761465;29;20046;-75
2024/04/01 15:30:39;;;;;;;0.00;0.00;;;;;;;27.30;47.11;98241.25;4776024;29;20035;-75
2024/04/01 15:33:18;;;;;;;;;;;;;;;;;;;;;
2024/04/01 15:36:07;;;;;;;0.00;0.00;;;;;;;26.07;47.61;98239.06;4791764;29;20028;-76
2024/04/01 15:38:35;;;;;;;0.00;0.00;;;;;;;26.59;51.33;98238.59;4747362;29;20036;-75
2024/04/01 15:41:02;;;;;;;0.00;0.00;;;;;;;27.64;48.74;98254.22;4761644;30;20066;-75
2024/04/01 15:43:27;;;;;;;0.00;0.00;;;;;;;27.34;44.30;98242.00;4772407;29;20046;-75
2024/04/01 15:45:55;;;;;;;0.00;0.00;;;;;;;26.85;45.22;98255.75;4776149;29;20031;-76
2024/04/01 15:48:21;;;;;;;0.00;0.00;;;;;;;26.23;45.57;98244.81;4767202;29;20116;-76
2024/04/01 15:51:05;;;;;;;0.00;0.00;;;;;;;24.69;43.15;98231.59;4760655;29;20586;-75
2024/04/01 15:53:49;;;;;;;0.00;0.00;;;;;;;23.33;41.92;98261.19;4777933;29;20031;-77
2024/04/01 15:56:20;;;;;;;0.00;0.00;;;;;;;21.90;41.25;98268.47;4778957;29;20062;-75
2024/04/01 15:58:57;;;;;;;0.00;0.00;;;;;;;21.90;43.01;98243.44;4779441;29;20313;-75
2024/04/01 16:01:25;;;;;;;0.00;0.00;;;;;;;22.00;41.81;98273.25;4766572;29;20036;-75
2024/04/01 16:03:51;;;;;;;0.00;0.00;;;;;;;22.54;42.51;98261.38;4773598;29;20034;-76
2024/04/01 16:06:35;;;;;;;0.00;0.00;;;;;;;23.20;41.62;98248.91;4780331;29;20066;-76
2024/04/01 16:09:11;;;;;;;0.00;0.00;;;;;;;22.54;37.96;98256.59;4772162;29;20035;-75
2024/04/01 16:11:43;;;;;;;0.00;0.00;;;;;;;20.65;41.12;98256.41;4766126;29;20508;-75
2024/04/01 16:14:16;;;;;;;0.00;0.00;;;;;;;20.73;40.92;98265.59;4778207;29;20062;-74
2024/04/01 16:16:46;;;;;;;0.00;0.00;;;;;;;21.66;40.49;98259.69;4781775;29;20027;-76
2024/04/01 16:19:22;;;;;;;0.00;0.00;;;;;;;23.33;40.57;98272.34;4768226;29;20475;-74
2024/04/01 16:22:01;;;;;;;0.00;0.00;;;;;;;23.84;35.83;98270.09;4772963;29;20047;-75
2024/04/01 16:24:31;;;;;;;0.00;0.00;;;;;;;22.10;38.09;98260.56;4769284;29;20028;-76
2024/04/01 16:27:06;;;;;;;0.00;0.00;;;;;;;21.45;40.21;98269.53;4783207;29;20091;-75
2024/04/01 16:29:41;;;;;;;0.00;0.00;;;;;;;20.91;37.88;98271.28;4768661;29;20043;-75
2024/04/01 16:32:14;;;;;;;0.00;0.00;;;;;;;19.15;42.05;98242.66;4775306;29;20027;-74
2024/04/01 16:56:17;;;;;;;;;;;;;;;;;;;;;
2024/04/01 16:59:07;;;;;;;;;;;;;;;;;;;;;
2024/04/01 17:01:42;;;;;;;0.00;0.00;;;;;;;13.77;55.59;98245.88;4769155;29;20042;-78
2024/04/01 17:04:28;;;;;;;0.00;0.00;;;;;;;13.83;56.92;98290.41;4774524;29;20039;-78
2024/04/01 17:07:16;;;;;;;0.00;0.00;;;;;;;13.29;58.27;98247.31;4769867;29;20107;-79
2024/04/01 17:09:51;;;;;;;0.00;0.00;;;;;;;13.21;59.49;98268.19;4762315;29;20054;-78
2024/04/01 17:12:28;;;;;;;0.00;0.00;;;;;;;13.17;60.36;98271.94;4783431;29;20024;-79
2024/04/01 17:14:53;;;;;;;0.00;0.00;;;;;;;13.83;60.09;98287.66;4777589;29;20118;-76
2024/04/01 17:17:19;;;;;;;0.00;0.00;;;;;;;15.82;57.36;98297.28;4774911;29;20127;-77
2024/04/01 17:20:23;;;;;;;;;;;;;;;;;;;;;
2024/04/01 17:23:06;;;;;;;0.00;0.00;;;;;;;15.67;52.88;98296.06;4771855;29;20081;-76
2024/04/01 17:25:32;;;;;;;0.00;0.00;;;;;;;14.75;54.95;98304.81;4790047;29;20126;-76
2024/04/01 17:28:04;;;;;;;0.00;0.00;;;;;;;14.26;57.01;98289.09;4736615;29;20154;-77
2024/04/01 17:30:32;;;;;;;0.00;0.00;;;;;;;14.43;57.03;98309.28;4784058;29;20400;-76
2024/04/01 17:32:59;;;;;;;0.00;0.00;;;;;;;14.01;58.71;98315.75;4776386;29;20037;-77
2024/04/01 17:35:27;;;;;;;0.00;0.00;;;;;;;13.60;60.42;98295.50;4776212;29;20031;-78
2024/04/01 17:38:03;;;;;;;0.00;0.00;;;;;;;13.12;62.61;98291.38;4772609;29;20035;-77
2024/04/01 17:40:29;;;;;;;0.00;0.00;;;;;;;12.81;64.78;98314.50;4773198;29;20036;-78
2024/04/01 17:42:55;;;;;;;0.05;0.05;;;;;;;12.39;66.95;98293.28;4769303;29;20084;-78
2024/04/01 17:45:21;;;;;;;0.00;0.00;;;;;;;12.23;68.35;98304.78;4770315;29;20027;-77
2024/04/01 17:47:49;;;;;;;0.00;0.00;;;;;;;12.03;69.30;98320.03;4784818;29;20031;-76
2024/04/01 17:50:19;;;;;;;0.00;0.00;;;;;;;11.84;70.22;98317.63;4762334;29;20087;-76
2024/04/01 17:52:48;;;;;;;0.00;0.00;;;;;;;11.56;71.40;98306.22;4778248;29;20035;-77
2024/04/01 17:55:16;;;;;;;0.00;0.00;;;;;;;11.59;72.33;98322.00;4778852;29;20038;-79
2024/04/01 17:58:36;;;;;;;0.00;0.00;;;;;;;11.47;73.27;98327.34;4778565;29;20046;-76
2024/04/01 18:01:09;;;;;;;0.00;0.00;;;;;;;11.30;74.26;98309.81;4748028;29;20494;-79
2024/04/01 18:03:43;;;;;;;0.00;0.00;;;;;;;11.10;75.68;98299.50;4759132;30;20044;-78
2024/04/01 18:06:19;;;;;;;;;;;;;;;;;;;;;
2024/04/01 18:08:48;;;;;;;0.00;0.00;;;;;;;10.96;77.25;98286.75;4775019;29;20031;-77
2024/04/01 18:11:18;;;;;;;0.00;0.00;;;;;;;11.04;77.64;98300.78;4770135;29;20046;-77
2024/04/01 18:13:46;;;;;;;0.00;0.00;;;;;;;11.05;78.84;98318.78;4783824;29;20069;-75
2024/04/01 18:16:14;;;;;;;0.10;0.10;;;;;;;10.82;79.32;98306.06;4768791;29;20034;-79
2024/04/01 18:18:40;;;;;;;0.00;0.00;;;;;;;10.71;80.50;98293.03;4777063;29;20039;-78
2024/04/01 18:21:06;;;;;;;0.10;0.10;;;;;;;10.53;80.61;98295.72;4775110;29;20051;-77
2024/04/01 18:23:32;;;;;;;0.00;0.00;;;;;;;10.54;81.97;98313.75;4763226;29;20042;-77
2024/04/01 18:25:59;;;;;;;0.10;0.10;;;;;;;10.43;83.25;98304.22;4763662;29;20402;-76
2024/04/01 18:28:25;;;;;;;0.00;0.00;;;;;;;10.39;84.05;98319.63;4764528;29;20027;-78
2024/04/01 18:30:51;;;;;;;0.00;0.00;;;;;;;10.18;85.49;98309.22;4774641;29;20185;-77
2024/04/01 18:33:17;;;;;;;0.10;0.10;;;;;;;10.21;86.48;98325.00;4772876;29;20123;-76
2024/04/01 18:35:45;;;;;;;0.10;0.10;;;;;;;9.95;88.48;98297.56;4758096;30;20039;-77
2024/04/01 18:38:11;;;;;;;0.00;0.00;;;;;;;10.06;88.61;98322.66;4764039;30;20027;-76
2024/04/01 18:41:09;;;;;;;0.00;0.00;;;;;;;10.02;90.34;98322.50;4774060;29;20044;-77
2024/04/01 18:43:37;;;;;;;0.00;0.00;;;;;;;9.98;92.18;98326.16;4770987;29;20056;-76
2024/04/01 18:46:03;;;;;;;0.00;0.00;;;;;;;9.81;91.80;98311.28;4771652;29;20027;-75